createdAt,value
2018-06-13T00:00:41.595Z,100751.03
2018-06-13T00:03:10.761Z,100754.06
2018-06-13T00:05:39.994Z,100753.78
2018-06-13T00:08:09.481Z,100751.26
2018-06-13T00:10:38.620Z,100752.10
2018-06-13T00:13:07.766Z,100754.77
2018-06-13T00:15:36.901Z,100758.89
2018-06-13T00:18:06.341Z,100759.63
2018-06-13T00:20:35.461Z,100759.03
2018-06-13T00:23:04.601Z,100767.14
2018-06-13T00:25:33.734Z,100764.52
2018-06-13T00:28:02.853Z,100763.05
2018-06-13T00:30:31.993Z,100762.58
2018-06-13T00:33:01.113Z,100766.81
2018-06-13T00:35:30.217Z,100766.55
2018-06-13T00:37:59.334Z,100759.63
2018-06-13T00:40:28.437Z,100774.25
2018-06-13T00:42:58.882Z,100767.47
2018-06-13T00:45:28.018Z,100769.45
2018-06-13T00:47:57.117Z,100778.55
2018-06-13T00:50:26.254Z,100772.64
2018-06-13T00:52:55.366Z,100775.09
2018-06-13T00:55:24.569Z,100776.42
2018-06-13T00:57:53.686Z,100776.92
2018-06-13T01:00:22.870Z,100780.97
2018-06-13T01:02:52.006Z,100779.72
2018-06-13T01:05:21.220Z,100790.39
2018-06-13T01:07:50.294Z,100782.69
2018-06-13T01:10:19.425Z,100780.75
2018-06-13T01:12:48.562Z,100791.19
2018-06-13T01:15:17.701Z,100785.76
2018-06-13T01:17:46.828Z,100790.53
2018-06-13T01:20:16.333Z,100795.21
2018-06-13T01:22:45.432Z,100791.73
2018-06-13T01:25:14.542Z,100790.09
2018-06-13T01:27:43.653Z,100790.56
2018-06-13T01:30:12.780Z,100793.98
2018-06-13T01:32:41.905Z,100797.91
2018-06-13T01:35:11.448Z,100796.16
2018-06-13T01:37:40.521Z,100789.84
2018-06-13T01:40:09.637Z,100790.30
2018-06-13T01:42:38.760Z,100795.30
2018-06-13T01:45:08.891Z,100789.32
2018-06-13T01:47:38.014Z,100789.35
2018-06-13T01:50:07.150Z,100789.77
2018-06-13T01:52:36.269Z,100796.18
2018-06-13T01:55:05.398Z,100792.25
2018-06-13T01:57:34.537Z,100793.89
2018-06-13T02:00:03.692Z,100800.86
2018-06-13T02:02:32.782Z,100798.55
2018-06-13T02:05:01.914Z,100810.33
2018-06-13T02:07:31.023Z,100796.93
2018-06-13T02:10:00.213Z,100797.13
2018-06-13T02:12:29.369Z,100791.91
2018-06-13T02:14:58.483Z,100797.89
2018-06-13T02:17:27.609Z,100802.92
2018-06-13T02:19:56.706Z,100794.08
2018-06-13T02:22:27.425Z,100800.31
2018-06-13T02:24:56.538Z,100803.63
2018-06-13T02:27:25.694Z,100801.61
2018-06-13T02:29:54.766Z,100801.56
2018-06-13T02:32:23.880Z,100802.17
2018-06-13T02:34:52.986Z,100801.95
2018-06-13T02:37:22.093Z,100806.18
2018-06-13T02:39:51.258Z,100807.98
2018-06-13T02:42:20.394Z,100801.93
2018-06-13T02:44:49.505Z,100795.90
2018-06-13T02:47:19.057Z,100794.96
2018-06-13T02:49:48.645Z,100798.09
2018-06-13T02:52:17.760Z,100801.64
2018-06-13T02:54:46.883Z,100805.17
2018-06-13T02:57:15.998Z,100808.02
2018-06-13T02:59:45.109Z,100801.05
2018-06-13T03:02:14.254Z,100803.50
2018-06-13T03:04:43.349Z,100800.69
2018-06-13T03:07:12.477Z,100800.30
2018-06-13T03:09:41.588Z,100801.23
2018-06-13T03:12:10.719Z,100805.53
2018-06-13T03:14:39.805Z,100805.85
2018-06-13T03:17:08.948Z,100798.29
2018-06-13T03:19:38.042Z,100794.92
2018-06-13T03:22:07.161Z,100797.00
2018-06-13T03:24:36.270Z,100801.33
2018-06-13T03:27:05.645Z,100803.25
2018-06-13T03:29:34.997Z,100806.62
2018-06-13T03:32:04.108Z,100807.42
2018-06-13T03:34:33.249Z,100797.73
2018-06-13T03:37:02.725Z,100798.77
2018-06-13T03:39:31.867Z,100806.98
2018-06-13T03:42:00.969Z,100802.70
2018-06-13T03:44:30.121Z,100805.75
2018-06-13T03:46:59.246Z,100799.70
2018-06-13T03:49:34.206Z,100801.64
2018-06-13T03:52:03.330Z,100799.00
2018-06-13T03:54:32.490Z,100795.70
2018-06-13T03:57:01.651Z,100803.21
2018-06-13T03:59:30.781Z,100809.27
2018-06-13T04:01:59.902Z,100808.92
2018-06-13T04:04:29.019Z,100803.37
2018-06-13T04:06:58.131Z,100813.16
2018-06-13T04:09:27.234Z,100810.66
2018-06-13T04:11:56.340Z,100811.15
2018-06-13T04:14:25.453Z,100810.13
2018-06-13T04:16:54.562Z,100816.66
2018-06-13T04:19:23.653Z,100808.77
2018-06-13T04:21:52.765Z,100813.82
2018-06-13T04:24:21.885Z,100810.30
2018-06-13T04:26:50.997Z,100815.18
2018-06-13T04:29:20.103Z,100811.21
2018-06-13T04:31:49.241Z,100805.66
2018-06-13T04:34:18.337Z,100813.88
2018-06-13T04:36:47.483Z,100813.61
2018-06-13T04:39:16.573Z,100810.55
2018-06-13T04:41:45.685Z,100809.47
2018-06-13T04:44:14.789Z,100811.86
2018-06-13T04:46:43.918Z,100813.99
2018-06-13T04:49:13.054Z,100811.21
2018-06-13T04:51:42.227Z,100809.08
2018-06-13T04:54:11.343Z,100807.99
2018-06-13T04:56:40.530Z,100818.66
2018-06-13T04:59:12.824Z,100825.65
2018-06-13T05:01:41.949Z,100829.66
2018-06-13T05:04:11.078Z,100826.45
2018-06-13T05:06:40.203Z,100824.29
2018-06-13T05:09:11.470Z,100822.75
2018-06-13T05:11:40.592Z,100829.02
2018-06-13T05:14:09.706Z,100821.94
2018-06-13T05:16:38.837Z,100828.09
2018-06-13T05:19:07.968Z,100823.43
2018-06-13T05:21:37.117Z,100832.16
2018-06-13T05:24:06.355Z,100831.70
2018-06-13T05:26:35.518Z,100838.93
2018-06-13T05:29:04.674Z,100838.25
2018-06-13T05:31:33.837Z,100833.50
2018-06-13T05:34:08.535Z,100842.41
2018-06-13T05:36:37.730Z,100842.86
2018-06-13T05:39:08.045Z,100850.48
2018-06-13T05:41:38.559Z,100846.11
2018-06-13T05:44:07.653Z,100846.97
2018-06-13T05:46:36.757Z,100841.48
2018-06-13T05:49:05.846Z,100850.02
2018-06-13T05:51:34.933Z,100850.52
2018-06-13T05:54:04.065Z,100857.95
2018-06-13T05:56:33.253Z,100859.19
2018-06-13T05:59:02.364Z,100857.44
2018-06-13T06:01:31.645Z,100856.70
2018-06-13T06:04:00.650Z,100864.61
2018-06-13T06:06:29.889Z,100864.11
2018-06-13T06:08:59.098Z,100866.67
2018-06-13T06:11:28.248Z,100860.93
2018-06-13T06:13:57.471Z,100867.03
2018-06-13T06:16:26.589Z,100870.84
2018-06-13T06:18:55.805Z,100870.84
2018-06-13T06:21:24.905Z,100862.31
2018-06-13T06:23:54.054Z,100871.64
2018-06-13T06:26:23.169Z,100871.47
2018-06-13T06:28:52.262Z,100873.39
2018-06-13T06:31:21.361Z,100878.69
2018-06-13T06:33:50.448Z,100881.42
2018-06-13T06:36:19.538Z,100882.02
2018-06-13T06:38:48.645Z,100877.08
2018-06-13T06:41:17.741Z,100882.37
2018-06-13T06:43:46.846Z,100884.74
2018-06-13T06:46:15.929Z,100891.48
2018-06-13T06:48:45.038Z,100883.32
2018-06-13T06:51:14.125Z,100887.44
2018-06-13T06:53:43.225Z,100882.11
2018-06-13T06:56:12.321Z,100884.06
2018-06-13T06:58:41.431Z,100881.80
2018-06-13T07:01:10.500Z,100887.65
2018-06-13T07:03:39.610Z,100882.50
2018-06-13T07:06:08.735Z,100880.70
2018-06-13T07:08:37.854Z,100881.95
2018-06-13T07:11:06.982Z,100880.41
2018-06-13T07:13:36.109Z,100894.24
2018-06-13T07:16:05.209Z,100891.09
2018-06-13T07:18:34.285Z,100896.50
2018-06-13T07:21:03.385Z,100897.73
2018-06-13T07:23:32.585Z,100899.56
2018-06-13T07:26:01.686Z,100897.22
2018-06-13T07:28:30.849Z,100896.06
2018-06-13T07:30:59.934Z,100896.20
2018-06-13T07:33:29.029Z,100890.29
2018-06-13T07:35:58.138Z,100884.69
2018-06-13T07:38:27.225Z,100879.86
2018-06-13T07:40:56.385Z,100876.38
2018-06-13T07:43:25.469Z,100879.22
2018-06-13T07:45:54.615Z,100880.05
2018-06-13T07:48:23.701Z,100885.52
2018-06-13T07:50:53.057Z,100891.02
2018-06-13T07:53:22.149Z,100894.84
2018-06-13T07:55:51.242Z,100889.84
2018-06-13T07:58:20.403Z,100891.72
2018-06-13T08:00:49.494Z,100898.95
2018-06-13T08:03:18.609Z,100897.27
2018-06-13T08:05:47.795Z,100895.86
2018-06-13T08:08:16.961Z,100903.16
2018-06-13T08:10:45.985Z,100906.32
2018-06-13T08:13:15.109Z,100903.13
2018-06-13T08:15:44.209Z,100909.17
2018-06-13T08:18:13.345Z,100909.17
2018-06-13T08:20:42.446Z,100908.70
2018-06-13T08:23:11.517Z,100906.69
2018-06-13T08:25:40.625Z,100903.05
2018-06-13T08:28:09.721Z,100910.90
2018-06-13T08:30:38.849Z,100902.51
2018-06-13T08:33:07.931Z,100908.28
2018-06-13T08:35:37.057Z,100904.64
2018-06-13T08:38:06.146Z,100915.36
2018-06-13T08:40:35.246Z,100916.83
2018-06-13T08:43:04.621Z,100916.14
2018-06-13T08:45:33.715Z,100922.61
2018-06-13T08:48:02.789Z,100922.19
2018-06-13T08:50:31.889Z,100915.14
2018-06-13T08:53:01.001Z,100918.61
2018-06-13T08:55:30.106Z,100919.48
2018-06-13T08:57:59.203Z,100928.25
2018-06-13T09:00:28.331Z,100929.97
2018-06-13T09:02:58.537Z,100924.47
2018-06-13T09:05:27.661Z,100932.23
2018-06-13T09:07:57.090Z,100931.94
2018-06-13T09:10:26.430Z,100928.61
2018-06-13T09:12:55.510Z,100933.69
2018-06-13T09:15:24.609Z,100927.42
2018-06-13T09:17:53.709Z,100927.20
2018-06-13T09:20:22.865Z,100931.44
2018-06-13T09:22:52.286Z,100932.09
2018-06-13T09:25:21.377Z,100931.76
2018-06-13T09:27:50.557Z,100946.88
2018-06-13T09:30:19.822Z,100948.75
2018-06-13T09:32:48.990Z,100954.59
2018-06-13T09:35:18.117Z,100947.17
2018-06-13T09:37:47.201Z,100947.30
2018-06-13T09:40:16.310Z,100955.20
2018-06-13T09:42:45.458Z,100958.09
2018-06-13T09:45:14.678Z,100950.52
2018-06-13T09:47:43.794Z,100961.86
2018-06-13T09:50:12.906Z,100957.42
2018-06-13T09:52:42.005Z,100963.92
2018-06-13T09:55:11.117Z,100960.67
2018-06-13T09:57:40.256Z,100965.67
2018-06-13T10:00:14.514Z,100955.05
2018-06-13T10:02:43.619Z,100961.16
2018-06-13T10:05:12.797Z,100956.55
2018-06-13T10:07:41.912Z,100961.23
2018-06-13T10:10:11.086Z,100967.72
2018-06-13T10:12:40.184Z,100963.41
2018-06-13T10:15:09.277Z,100967.27
2018-06-13T10:17:38.466Z,100963.44
2018-06-13T10:20:07.637Z,100961.62
2018-06-13T10:22:36.721Z,100965.02
2018-06-13T10:25:05.850Z,100965.66
2018-06-13T10:27:38.815Z,100962.48
2018-06-13T10:30:07.979Z,100965.09
2018-06-13T10:32:37.134Z,100971.73
2018-06-13T10:35:06.297Z,100964.35
2018-06-13T10:37:35.399Z,100967.58
2018-06-13T10:40:04.535Z,100969.24
2018-06-13T10:42:33.689Z,100967.23
2018-06-13T10:45:02.794Z,100972.83
2018-06-13T10:47:31.925Z,100971.80
2018-06-13T10:50:01.020Z,100969.81
2018-06-13T10:52:30.133Z,100980.73
2018-06-13T10:54:59.361Z,100971.81
2018-06-13T10:57:28.497Z,100982.64
2018-06-13T10:59:57.609Z,100985.06
2018-06-13T11:02:26.721Z,100981.48
2018-06-13T11:04:55.998Z,100977.75
2018-06-13T11:07:25.174Z,100980.45
2018-06-13T11:09:54.261Z,100973.25
2018-06-13T11:12:23.437Z,100971.44
2018-06-13T11:14:52.517Z,100979.31
2018-06-13T11:17:21.738Z,100985.69
2018-06-13T11:19:51.027Z,100986.59
2018-06-13T11:22:20.167Z,100982.22
2018-06-13T11:24:49.405Z,100986.92
2018-06-13T11:27:18.581Z,100984.67
2018-06-13T11:29:51.098Z,100980.23
2018-06-13T11:32:20.277Z,100991.16
2018-06-13T11:34:53.505Z,100987.96
2018-06-13T11:37:22.590Z,100989.20
2018-06-13T11:39:51.693Z,100994.30
2018-06-13T11:42:20.925Z,100986.43
2018-06-13T11:44:50.017Z,100983.91
2018-06-13T11:47:19.173Z,100983.31
2018-06-13T11:49:48.266Z,100986.05
2018-06-13T11:52:17.530Z,100982.53
2018-06-13T11:54:46.982Z,100990.73
2018-06-13T11:57:16.045Z,100988.22
2018-06-13T11:59:45.137Z,100983.97
2018-06-13T12:02:14.242Z,100985.52
2018-06-13T12:04:43.333Z,100986.70
2018-06-13T12:07:12.425Z,100980.14
2018-06-13T12:09:41.501Z,100984.14
2018-06-13T12:12:10.600Z,100986.12
2018-06-13T12:14:39.713Z,100988.22
2018-06-13T12:17:08.817Z,100984.45
2018-06-13T12:19:37.903Z,100979.37
2018-06-13T12:22:06.989Z,100996.17
2018-06-13T12:24:36.093Z,100995.45
2018-06-13T12:27:05.285Z,100997.42
2018-06-13T12:29:34.381Z,100996.84
2018-06-13T12:32:03.500Z,100994.05
2018-06-13T12:34:32.698Z,100994.39
2018-06-13T12:37:01.778Z,100994.39
2018-06-13T12:39:30.885Z,100995.44
2018-06-13T12:41:59.973Z,101006.02
2018-06-13T12:44:29.113Z,101008.08
2018-06-13T12:46:58.205Z,100998.70
2018-06-13T12:49:27.290Z,101004.23
2018-06-13T12:51:56.397Z,101002.17
2018-06-13T12:54:25.529Z,101004.58
2018-06-13T12:56:54.696Z,101003.63
2018-06-13T12:59:23.760Z,101009.91
2018-06-13T13:01:52.857Z,101009.23
2018-06-13T13:04:21.934Z,101012.14
2018-06-13T13:06:51.017Z,101017.90
2018-06-13T13:09:20.093Z,101009.88
2018-06-13T13:11:49.183Z,101011.91
2018-06-13T13:14:18.273Z,101015.08
2018-06-13T13:16:48.927Z,101017.67
2018-06-13T13:19:18.441Z,101018.65
2018-06-13T13:21:47.525Z,101013.55
2018-06-13T13:24:16.611Z,101009.73
2018-06-13T13:26:45.729Z,101020.84
2018-06-13T13:29:14.909Z,101013.41
2018-06-13T13:31:44.018Z,101013.11
2018-06-13T13:34:13.109Z,101010.58
2018-06-13T13:36:42.190Z,101014.44
2018-06-13T13:39:11.910Z,101014.34
2018-06-13T13:41:41.328Z,101009.77
2018-06-13T13:44:10.483Z,101007.41
2018-06-13T13:46:39.553Z,101000.13
2018-06-13T13:49:08.697Z,101004.58
2018-06-13T13:51:37.880Z,101002.16
2018-06-13T13:54:07.270Z,101002.45
2018-06-13T13:56:36.429Z,101001.73
2018-06-13T13:59:05.697Z,101008.42
2018-06-13T14:01:34.822Z,101000.11
2018-06-13T14:04:03.889Z,101005.28
2018-06-13T14:06:33.073Z,101002.47
2018-06-13T14:09:02.155Z,100998.47
2018-06-13T14:11:31.288Z,100992.06
2018-06-13T14:14:00.389Z,100991.58
2018-06-13T14:16:29.494Z,100989.87
2018-06-13T14:18:58.686Z,100994.59
2018-06-13T14:21:27.853Z,100988.81
2018-06-13T14:23:56.942Z,100986.25
2018-06-13T14:26:26.177Z,100984.48
2018-06-13T14:28:55.485Z,100982.20
2018-06-13T14:31:26.621Z,100966.13
2018-06-13T14:33:55.709Z,100972.92
2018-06-13T14:36:24.805Z,100976.67
2018-06-13T14:38:53.929Z,100976.45
2018-06-13T14:41:23.021Z,100982.42
2018-06-13T14:43:52.121Z,100979.22
2018-06-13T14:46:21.253Z,100975.45
2018-06-13T14:48:50.349Z,100982.41
2018-06-13T14:51:19.473Z,100970.17
2018-06-13T14:53:51.505Z,100964.25
2018-06-13T14:56:26.051Z,100960.36
2018-06-13T14:58:55.241Z,100965.20
2018-06-13T15:01:24.437Z,100968.23
2018-06-13T15:03:53.550Z,100963.89
2018-06-13T15:06:23.061Z,100967.62
2018-06-13T15:08:52.221Z,100956.00
2018-06-13T15:11:21.333Z,100963.41
2018-06-13T15:13:50.494Z,100959.37
2018-06-13T15:16:19.608Z,100958.39
2018-06-13T15:18:49.522Z,100951.74
2018-06-13T15:21:18.613Z,100953.31
2018-06-13T15:23:47.734Z,100953.86
2018-06-13T15:26:16.848Z,100951.30
2018-06-13T15:28:46.030Z,100957.64
2018-06-13T15:31:15.162Z,100948.98
2018-06-13T15:33:44.250Z,100953.17
2018-06-13T15:36:13.877Z,100958.02
2018-06-13T15:38:42.973Z,100958.48
2018-06-13T15:41:12.131Z,100957.04
2018-06-13T15:43:41.218Z,100958.36
2018-06-13T15:46:10.325Z,100958.67
2018-06-13T15:48:39.405Z,100947.34
2018-06-13T15:51:08.505Z,100950.61
2018-06-13T15:53:37.602Z,100949.84
2018-06-13T15:56:06.926Z,100940.48
2018-06-13T15:58:36.041Z,100944.91
2018-06-13T16:01:05.188Z,100947.25
2018-06-13T16:03:34.282Z,100950.31
2018-06-13T16:06:03.454Z,100955.53
2018-06-13T16:08:32.550Z,100952.13
2018-06-13T16:11:01.691Z,100961.20
2018-06-13T16:13:30.757Z,100959.37
2018-06-13T16:15:59.885Z,100964.48
2018-06-13T16:18:29.014Z,100958.99
2018-06-13T16:20:58.134Z,100957.80
2018-06-13T16:23:27.358Z,100963.92
2018-06-13T16:25:57.465Z,100966.38
2018-06-13T16:28:26.566Z,100963.36
2018-06-13T16:30:55.653Z,100974.52
2018-06-13T16:33:24.961Z,100974.10
2018-06-13T16:35:54.109Z,100973.69
2018-06-13T16:38:23.170Z,100974.20
2018-06-13T16:40:52.346Z,100976.30
2018-06-13T16:43:21.427Z,100977.54
2018-06-13T16:45:50.558Z,100980.42
2018-06-13T16:48:19.673Z,100984.69
2018-06-13T16:50:59.906Z,100982.59
2018-06-13T16:53:53.130Z,100980.64
2018-06-13T16:56:23.356Z,100985.15
2018-06-13T16:58:52.544Z,100979.05
2018-06-13T17:01:22.304Z,100985.52
2018-06-13T17:03:52.238Z,100986.21
2018-06-13T17:06:21.337Z,100978.74
2018-06-13T17:08:50.437Z,100983.13
2018-06-13T17:11:19.771Z,100981.58
2018-06-13T17:13:48.871Z,100982.03
2018-06-13T17:16:17.980Z,100984.75
2018-06-13T17:18:47.617Z,100985.63
2018-06-13T17:21:16.722Z,100978.27
2018-06-13T17:23:45.869Z,100975.39
2018-06-13T17:26:14.985Z,100982.81
2018-06-13T17:28:44.072Z,100985.05
2018-06-13T17:31:13.193Z,100993.80
2018-06-13T17:33:42.310Z,100993.72
2018-06-13T17:36:11.422Z,100998.83
2018-06-13T17:38:40.546Z,101003.28
2018-06-13T17:41:09.661Z,101005.67
2018-06-13T17:43:38.748Z,101010.06
2018-06-13T17:46:07.833Z,101016.67
2018-06-13T17:48:36.921Z,101015.77
2018-06-13T17:51:06.045Z,101017.05
2018-06-13T17:53:35.129Z,101033.86
2018-06-13T17:56:04.290Z,101038.00
2018-06-13T17:58:33.422Z,101031.23
2018-06-13T18:01:02.658Z,101034.30
2018-06-13T18:03:31.765Z,101031.48
2018-06-13T18:06:00.861Z,101031.26
2018-06-13T18:08:29.946Z,101034.54
2018-06-13T18:10:59.053Z,101039.56
2018-06-13T18:13:28.165Z,101046.75
2018-06-13T18:15:57.475Z,101049.74
2018-06-13T18:18:26.561Z,101044.27
2018-06-13T18:20:55.790Z,101051.48
2018-06-13T18:23:25.174Z,101045.61
2018-06-13T18:25:54.310Z,101042.66
2018-06-13T18:28:23.486Z,101048.77
2018-06-13T18:30:52.657Z,101047.81
2018-06-13T18:33:21.786Z,101040.89
2018-06-13T18:35:50.873Z,101048.94
2018-06-13T18:38:20.849Z,101047.52
2018-06-13T18:40:49.934Z,101051.56
2018-06-13T18:43:23.977Z,101046.28
2018-06-13T18:45:53.057Z,101038.24
2018-06-13T18:48:22.142Z,101044.45
2018-06-13T18:50:51.281Z,101045.70
2018-06-13T18:53:21.446Z,101046.30
2018-06-13T18:55:50.569Z,101051.81
2018-06-13T18:58:19.691Z,101050.95
2018-06-13T19:00:48.781Z,101045.41
2018-06-13T19:03:17.960Z,101047.11
2018-06-13T19:05:47.089Z,101045.80
2018-06-13T19:08:16.217Z,101038.36
2018-06-13T19:10:45.341Z,101032.12
2018-06-13T19:13:14.453Z,101036.59
2018-06-13T19:15:43.589Z,101045.05
2018-06-13T19:18:12.973Z,101047.52
2018-06-13T19:20:42.100Z,101046.99
2018-06-13T19:23:11.225Z,101047.41
2018-06-13T19:25:40.397Z,101046.78
2018-06-13T19:28:09.649Z,101051.14
2018-06-13T19:30:38.753Z,101048.96
2018-06-13T19:33:07.847Z,101056.56
2018-06-13T19:35:36.950Z,101056.62
2018-06-13T19:38:06.055Z,101054.88
2018-06-13T19:40:35.254Z,101064.58
2018-06-13T19:43:08.516Z,101064.55
2018-06-13T19:45:37.605Z,101060.05
2018-06-13T19:48:12.090Z,101066.91
2018-06-13T19:50:41.205Z,101076.83
2018-06-13T19:53:15.623Z,101067.05
2018-06-13T19:55:49.929Z,101066.45
2018-06-13T19:58:22.102Z,101063.47
2018-06-13T20:00:51.216Z,101069.27
2018-06-13T20:03:25.429Z,101075.63
2018-06-13T20:05:54.533Z,101080.14
2018-06-13T20:08:23.614Z,101083.19
2018-06-13T20:10:53.378Z,101080.05
2018-06-13T20:13:27.888Z,101080.87
2018-06-13T20:16:02.465Z,101082.98
2018-06-13T20:18:36.924Z,101085.05
2018-06-13T20:21:06.249Z,101083.30
2018-06-13T20:23:35.360Z,101074.47
2018-06-13T20:26:09.681Z,101075.62
2018-06-13T20:29:42.757Z,101079.37
2018-06-13T20:32:11.861Z,101083.53
2018-06-13T20:34:40.956Z,101086.31
2018-06-13T20:37:10.073Z,101091.82
2018-06-13T20:39:39.184Z,101102.19
2018-06-13T20:42:08.255Z,101105.67
2018-06-13T20:44:37.417Z,101106.86
2018-06-13T20:47:06.557Z,101103.89
2018-06-13T20:49:35.649Z,101110.68
2018-06-13T20:52:04.851Z,101107.66
2018-06-13T20:54:34.048Z,101114.41
2018-06-13T20:57:03.268Z,101108.09
2018-06-13T20:59:32.341Z,101110.38
2018-06-13T21:02:01.429Z,101108.09
2018-06-13T21:04:30.569Z,101116.00
2018-06-13T21:07:00.769Z,101122.44
2018-06-13T21:09:29.857Z,101123.22
2018-06-13T21:12:00.090Z,101132.13
2018-06-13T21:14:29.263Z,101127.54
2018-06-13T21:16:58.387Z,101123.84
2018-06-13T21:19:27.478Z,101128.94
2018-06-13T21:21:56.590Z,101119.27
2018-06-13T21:24:25.686Z,101131.77
2018-06-13T21:26:54.772Z,101133.37
2018-06-13T21:29:23.856Z,101135.73
2018-06-13T21:31:52.942Z,101141.60
2018-06-13T21:34:22.089Z,101138.27
2018-06-13T21:36:51.258Z,101135.94
2018-06-13T21:39:20.345Z,101140.08
2018-06-13T21:41:50.122Z,101138.85
2018-06-13T21:44:19.349Z,101138.73
2018-06-13T21:46:48.469Z,101146.75
2018-06-13T21:49:17.550Z,101131.89
2018-06-13T21:51:46.719Z,101131.34
2018-06-13T21:54:15.806Z,101123.44
2018-06-13T21:56:44.941Z,101125.21
2018-06-13T21:59:14.069Z,101128.13
2018-06-13T22:01:43.150Z,101129.91
2018-06-13T22:04:12.236Z,101135.89
2018-06-13T22:06:41.321Z,101132.30
2018-06-13T22:09:11.549Z,101134.45
2018-06-13T22:11:45.830Z,101130.69
2018-06-13T22:14:14.913Z,101124.16
2018-06-13T22:16:44.042Z,101123.19
2018-06-13T22:19:13.144Z,101119.21
2018-06-13T22:21:42.401Z,101123.97
2018-06-13T22:24:12.034Z,101115.37
2018-06-13T22:26:41.133Z,101113.64
2018-06-13T22:29:10.286Z,101118.12
2018-06-13T22:31:39.446Z,101118.91
2018-06-13T22:34:08.701Z,101107.23
2018-06-13T22:36:37.822Z,101105.09
2018-06-13T22:39:08.966Z,101108.06
2018-06-13T22:41:38.097Z,101107.19
2018-06-13T22:44:07.208Z,101108.93
2018-06-13T22:46:36.327Z,101113.02
2018-06-13T22:49:05.406Z,101121.67
2018-06-13T22:51:34.517Z,101113.05
2018-06-13T22:54:03.665Z,101112.62
2018-06-13T22:56:32.798Z,101113.53
2018-06-13T22:59:01.887Z,101106.88
2018-06-13T23:01:31.071Z,101108.75
2018-06-13T23:04:00.161Z,101108.65
2018-06-13T23:06:29.277Z,101110.39
2018-06-13T23:08:58.366Z,101114.72
2018-06-13T23:11:27.453Z,101115.68
2018-06-13T23:13:56.562Z,101117.92
2018-06-13T23:16:25.649Z,101121.41
2018-06-13T23:18:54.767Z,101116.62
2018-06-13T23:21:23.871Z,101109.74
2018-06-13T23:23:52.986Z,101104.05
2018-06-13T23:26:23.070Z,101122.77
2018-06-13T23:28:52.173Z,101113.59
2018-06-13T23:31:21.753Z,101118.85
2018-06-13T23:33:50.862Z,101119.73
2018-06-13T23:36:20.030Z,101117.98
2018-06-13T23:38:49.389Z,101112.85
2018-06-13T23:41:18.506Z,101118.06
2018-06-13T23:43:47.609Z,101114.98
2018-06-13T23:46:16.754Z,101122.08
2018-06-13T23:48:45.869Z,101119.02
2018-06-13T23:51:14.982Z,101121.60
2018-06-13T23:53:44.061Z,101115.95
2018-06-13T23:56:13.279Z,101115.11
2018-06-13T23:58:42.377Z,101113.77
